Time;durP1;ratioP1;P1;durP2;ratioP2;P2;SDS_P1;SDS_P2;PMS_P1;PMS_P2;Temp;Humidity;BMP_temperature;BMP_pressure;BME280_temperature;BME280_humidity;BME280_pressure;Samples;Min_cycle;Max_cycle;Signal;HPM_P1;HPM_P2
2023/08/03 00:05:08;;;;;;;5.60;2.50;;;;;;;23.14;77.44;98646.33;679404;1279;138815;-76
2023/08/03 00:20:11;;;;;;;8.30;2.60;;;;;;;23.10;78.03;98588.80;678980;1276;138926;-76
2023/08/03 00:35:14;;;;;;;7.30;2.80;;;;;;;22.57;82.30;98563.35;679136;1267;140395;-75
2023/08/03 00:50:19;;;;;;;5.50;2.40;;;;;;;23.15;80.86;98561.77;678184;1269;138893;-76
2023/08/03 01:05:22;;;;;;;5.50;2.70;;;;;;;23.59;78.69;98582.91;678814;1267;140085;-76
2023/08/03 01:20:28;;;;;;;3.40;2.30;;;;;;;23.19;79.07;98558.08;679118;1273;140708;-76
2023/08/03 01:35:31;;;;;;;5.50;2.60;;;;;;;23.35;78.07;98548.05;679654;1266;139699;-77
2023/08/03 01:50:34;;;;;;;6.40;2.70;;;;;;;24.08;73.52;98564.77;680597;1267;140567;-75
2023/08/03 02:05:37;;;;;;;4.10;2.10;;;;;;;24.21;72.86;98536.95;680846;1262;141818;-74
2023/08/03 02:20:41;;;;;;;7.50;2.50;;;;;;;23.76;73.93;98529.34;680183;1267;138844;-75
2023/08/03 02:35:44;;;;;;;6.00;2.30;;;;;;;22.76;78.30;98547.56;680558;1264;139751;-76
2023/08/03 02:50:49;;;;;;;9.60;2.50;;;;;;;22.89;77.90;98535.46;679985;1267;140110;-76
2023/08/03 03:05:53;;;;;;;5.10;2.30;;;;;;;22.53;79.42;98522.21;679928;1264;140912;-75
2023/08/03 03:20:57;;;;;;;5.00;2.50;;;;;;;22.54;79.99;98515.70;679644;1267;139730;-75
2023/08/03 03:36:01;;;;;;;5.90;2.70;;;;;;;22.92;79.82;98508.29;677787;1261;140897;-75
2023/08/03 03:51:04;;;;;;;5.50;2.30;;;;;;;23.07;80.77;98515.91;680327;1266;140304;-75
2023/08/03 04:06:08;;;;;;;4.40;2.40;;;;;;;22.89;82.44;98517.98;678625;1263;139634;-75
2023/08/03 04:21:11;;;;;;;11.30;6.40;;;;;;;23.18;82.24;98524.32;678604;1263;139176;-75
2023/08/03 04:36:14;;;;;;;5.60;2.50;;;;;;;22.88;84.59;98531.21;680568;1267;139336;-76
2023/08/03 04:51:18;;;;;;;7.60;2.70;;;;;;;22.97;86.88;98529.19;680069;1262;140546;-75
2023/08/03 05:06:24;;;;;;;6.90;2.40;;;;;;;23.84;85.14;98562.95;678284;1266;139815;-76
2023/08/03 05:59:37;;;;;;;4.90;2.00;;;;;;;26.39;75.57;98592.37;655495;1306;612005;-77
2023/08/03 06:15:48;;;;;;;4.90;2.00;;;;;;;25.46;76.71;98627.46;650926;1299;3094564;-78
2023/08/03 06:30:53;;;;;;;10.30;2.50;;;;;;;25.25;77.88;98681.20;668525;1270;138549;-76
2023/08/03 06:45:59;;;;;;;5.00;2.30;;;;;;;25.22;77.53;98668.14;672202;1266;139589;-77
2023/08/03 07:01:03;;;;;;;4.20;2.70;;;;;;;25.33;76.92;98661.92;669875;1267;138032;-76
2023/08/03 07:16:09;;;;;;;5.00;2.30;;;;;;;26.09;74.48;98659.10;670650;1260;138849;-76
2023/08/03 07:31:14;;;;;;;8.20;2.30;;;;;;;25.16;76.96;98697.08;677528;1264;138273;-76
2023/08/03 07:46:33;;;;;;;3.90;2.90;;;;;;;24.15;82.39;98707.56;678165;1261;138774;-78
2023/08/03 08:01:40;;;;;;;5.20;2.00;;;;;;;25.35;79.17;98734.12;673396;1260;138013;-75
2023/08/03 08:16:44;;;;;;;6.50;2.30;;;;;;;26.25;74.42;98747.98;674897;1263;137480;-78
2023/08/03 08:31:58;;;;;;;2.90;1.80;;;;;;;27.30;72.29;98736.60;674616;1264;138267;-75
2023/08/03 08:47:04;;;;;;;7.10;2.10;;;;;;;26.91;69.52;98740.16;675418;1263;138415;-76
2023/08/03 09:02:11;;;;;;;3.40;1.80;;;;;;;27.58;66.81;98776.14;675852;1264;137637;-77
2023/08/03 09:17:16;;;;;;;3.30;1.50;;;;;;;26.72;68.96;98771.58;676713;1260;137684;-75
2023/08/03 09:32:34;;;;;;;10.90;2.10;;;;;;;26.28;67.72;98766.30;674367;1260;137836;-75
2023/08/03 09:47:43;;;;;;;3.20;1.40;;;;;;;27.36;66.01;98741.46;673350;1263;138069;-75
2023/08/03 10:03:03;;;;;;;6.70;1.40;;;;;;;29.12;60.64;98751.45;674598;1263;137495;-77
2023/08/03 10:18:08;;;;;;;6.40;1.10;;;;;;;28.74;60.02;98766.90;673566;1263;138863;-78
2023/08/03 10:33:11;;;;;;;4.20;1.50;;;;;;;27.46;62.71;98772.80;668917;1263;138165;-76
2023/08/03 10:48:53;;;;;;;11.10;1.80;;;;;;;27.72;62.14;98772.78;653063;1301;545099;-75
2023/08/03 11:04:11;;;;;;;4.70;1.50;;;;;;;27.46;61.86;98765.85;667133;1275;136427;-74
2023/08/03 11:19:21;;;;;;;3.80;1.60;;;;;;;28.70;59.34;98766.85;675657;1270;137859;-77
2023/08/03 11:34:49;;;;;;;3.90;1.60;;;;;;;28.70;59.30;98757.80;660825;1294;545247;-75
2023/08/03 11:50:01;;;;;;;8.00;2.00;;;;;;;29.49;56.32;98762.09;674286;1273;138310;-75
2023/08/03 12:05:07;;;;;;;6.90;2.10;;;;;;;28.48;57.19;98766.29;673727;1274;137819;-77
2023/08/03 12:20:22;;;;;;;8.00;1.80;;;;;;;28.91;58.57;98769.39;679146;1272;137118;-76
2023/08/03 12:35:31;;;;;;;3.40;2.00;;;;;;;29.95;56.59;98762.99;679635;1269;137515;-75
2023/08/03 12:50:45;;;;;;;8.30;2.10;;;;;;;30.50;55.20;98755.05;679641;1272;136972;-77
2023/08/03 13:05:50;;;;;;;7.40;2.30;;;;;;;29.89;53.86;98752.12;679774;1271;136969;-76
2023/08/03 13:21:01;;;;;;;5.90;1.80;;;;;;;29.61;57.49;98766.56;681212;1267;137525;-78
2023/08/03 13:36:11;;;;;;;6.40;1.80;;;;;;;28.84;61.73;98774.23;681307;1268;137476;-76
2023/08/03 13:51:17;;;;;;;3.40;1.50;;;;;;;29.87;57.75;98782.71;680986;1268;137273;-75
2023/08/03 14:06:23;;;;;;;12.20;1.90;;;;;;;29.08;58.40;98812.31;682200;1260;137442;-74
2023/08/03 14:21:35;;;;;;;7.10;1.80;;;;;;;28.46;65.33;98849.33;682090;1265;138155;-76
2023/08/03 14:37:03;;;;;;;2.50;1.60;;;;;;;28.42;68.27;98859.80;682390;1262;136449;-76
2023/08/03 14:52:09;;;;;;;6.20;1.50;;;;;;;28.16;69.66;98854.89;682175;1264;137318;-75
2023/08/03 15:07:16;;;;;;;5.30;2.00;;;;;;;28.02;68.85;98845.45;682008;1263;138530;-78
2023/08/03 15:22:22;;;;;;;4.50;1.70;;;;;;;28.20;64.10;98847.34;681822;1264;137736;-75
2023/08/03 15:37:31;;;;;;;3.30;1.10;;;;;;;29.21;59.96;98841.08;681870;1260;138237;-78
2023/08/03 15:52:38;;;;;;;6.10;1.50;;;;;;;29.73;55.08;98850.39;681900;1265;137085;-75
2023/08/03 16:08:04;;;;;;;6.00;1.30;;;;;;;29.52;54.83;98847.86;682249;1260;137438;-77
2023/08/03 16:23:12;;;;;;;3.40;1.10;;;;;;;29.41;56.12;98847.63;682095;1266;137242;-76
2023/08/03 16:38:21;;;;;;;5.20;1.50;;;;;;;29.62;55.68;98856.46;682308;1262;138189;-76
2023/08/03 16:53:27;;;;;;;6.10;1.30;;;;;;;28.73;58.58;98862.51;682373;1263;137525;-77
2023/08/03 17:08:37;;;;;;;5.30;1.20;;;;;;;29.24;54.99;98879.42;682288;1261;137689;-75
2023/08/03 17:23:55;;;;;;;4.00;1.10;;;;;;;29.92;52.20;98888.20;682322;1263;138757;-77
2023/08/03 17:38:59;;;;;;;3.20;1.10;;;;;;;30.22;50.33;98895.16;682166;1263;137434;-77
2023/08/03 17:54:06;;;;;;;3.80;1.30;;;;;;;29.47;51.47;98908.52;682216;1261;137428;-76
2023/08/03 18:09:10;;;;;;;3.00;1.70;;;;;;;29.14;52.26;98928.05;682212;1260;137629;-74
2023/08/03 18:24:24;;;;;;;6.30;1.80;;;;;;;28.11;53.60;98952.83;682145;1264;137834;-79
2023/08/03 18:39:30;;;;;;;5.60;1.70;;;;;;;28.20;54.12;98961.06;682124;1261;137626;-77
2023/08/03 18:54:35;;;;;;;5.20;1.80;;;;;;;28.10;55.73;98982.48;682161;1263;136412;-76
2023/08/03 19:09:53;;;;;;;5.50;2.50;;;;;;;27.81;57.22;99002.16;682057;1266;137532;-77
2023/08/03 19:25:17;;;;;;;10.00;4.90;;;;;;;27.64;58.22;99029.98;682270;1262;138881;-75
2023/08/03 19:40:23;;;;;;;57.60;22.80;;;;;;;27.77;58.17;99047.16;682067;1263;138635;-75
2023/08/03 19:55:28;;;;;;;5.50;3.50;;;;;;;27.84;56.56;99065.39;681768;1262;137788;-77
2023/08/03 20:10:52;;;;;;;7.30;4.20;;;;;;;27.86;55.09;99074.10;681918;1262;138575;-78
2023/08/03 20:26:10;;;;;;;5.30;2.20;;;;;;;27.85;54.65;99080.14;682010;1262;137478;-79
2023/08/03 20:41:15;;;;;;;4.00;1.40;;;;;;;27.04;55.74;99092.10;682303;1263;137408;-75
2023/08/03 20:56:40;;;;;;;4.80;1.80;;;;;;;26.66;56.89;99106.19;682075;1260;138265;-75
2023/08/03 21:11:46;;;;;;;4.10;1.40;;;;;;;26.68;56.92;99118.98;682536;1264;137304;-77
2023/08/03 21:26:51;;;;;;;6.40;2.40;;;;;;;26.73;57.50;99117.16;682258;1263;137715;-75
2023/08/03 21:42:05;;;;;;;5.30;2.10;;;;;;;25.97;60.91;99122.33;682361;1263;137809;-78
2023/08/03 21:57:09;;;;;;;4.70;2.00;;;;;;;25.44;63.89;99139.74;682184;1263;137928;-76
2023/08/03 22:12:18;;;;;;;4.30;1.80;;;;;;;24.63;65.86;99141.98;682264;1262;138272;-76
2023/08/03 22:27:25;;;;;;;4.20;1.40;;;;;;;25.26;62.37;99152.77;682354;1263;138485;-77
2023/08/03 22:42:31;;;;;;;8.10;1.80;;;;;;;25.53;61.08;99165.69;682367;1264;138051;-77
2023/08/03 22:57:38;;;;;;;6.10;1.40;;;;;;;25.53;60.50;99170.68;682300;1262;138371;-75
2023/08/03 23:12:45;;;;;;;4.30;1.80;;;;;;;25.20;60.61;99185.23;682566;1263;138400;-77
2023/08/03 23:27:50;;;;;;;3.00;1.30;;;;;;;25.80;59.20;99200.45;682332;1261;138070;-77
2023/08/03 23:42:57;;;;;;;2.50;1.30;;;;;;;26.12;58.54;99211.15;682291;1264;199061;-78
2023/08/03 23:58:04;;;;;;;3.40;1.20;;;;;;;26.46;57.39;99224.27;682401;1259;137249;-76
